FTTJHTZA

Guest
Details From FTTJ - Ndjamena Hassan Djamous
To HTZA - Zanzibar
Flight Number -
Tags Generated
Created
Modified
Stats Distance 1,817 nm / 3,365 km
Max Altitude 0 ft / 0 m
Waypoints 2
Social Downloads 0
Likes 0
Share VATSIM

Download

Looking for another format? Having issues loading an existing format? Contact us
Advertisement - Login to hide

Notes

Generated

Route

FTTJ HTZA

ID Type Via Altitude Latitude Longitude Leg Dist Tot Dist Heading (true) Name
O FTTJ APT - 0 ft / 0 m 12.12492˚ 15.02473˚ - 0 nm - -
O HTZA APT - 0 ft / 0 m -6.21098˚ 39.22377˚ 1816 nm 1816 nm 126° / 127° -

Altitude Profile

Advertisement - Login to hide

Weather


0- 5 10 15 20 25 30 35+ Temperature / ° C

Clouds and Precipitation
Forecast for 2017-12-13 00:00 UTC. Updated an hour ago

Ground ~20,000 ft ~40,000 ft Winds

FTTJ

Details ICAO FTTJ (NDJ)
Name Ndjamena Hassan Djamous
Region Chad
Timezone Africa/Ndjamena (UTC+1.0)
Stats Elevation 968 ft / 295 m (AMSL)
Location 12.133718° 15.033962°
Runways 1
Magnetic Variation 1.182° E

METAR

FTTJ 122200Z 33004KT 300V010 CAVOK 25/08 Q1012 NOSIG

Decode

TAF

TAF FTTJ 121701Z 1218/1324 02006KT CAVOK TEMPO 1308/1316 08010KT

Decode

Departure Runways

ID Width Length Bearing (true) Bearing (mag) Surface Threshold Offset Overrun Length
05 148 ft / 45 m 9,200 ft / 2,804 m 45.72° 44.54° Asphalt 0 ft / 0 m 130 ft / 40 m
23 148 ft / 45 m 9,200 ft / 2,804 m 225.72° 224.54° Asphalt 0 ft / 0 m 200 ft / 61 m

HTZA

Details ICAO HTZA (ZNZ)
Name ZANZIBAR
Region Tanzania
Timezone Africa/Dar_es_Salaam (UTC+3.0)
Stats Elevation 54 ft / 16 m (AMSL)
Location -6.222024° 39.224885°
Runways 1
Magnetic Variation 1.808° W

METAR

Not found

TAF

TAF HTZA 121700Z 1218/1318 06005KT 9999 FEW016 BECMG 1303/1305 34010KT BKN018 BECMG 1309/1011 06010KT SCT022

Decode

Destination Runways

ID Width Length Bearing (true) Bearing (mag) Surface Threshold Offset Overrun Length
18 148 ft / 45 m 8,100 ft / 2,469 m 174.27° 176.08° Asphalt 0 ft / 0 m 0 ft / 0 m
36 148 ft / 45 m 8,100 ft / 2,469 m 354.27° 356.08° Asphalt 0 ft / 0 m 0 ft / 0 m